createdAt,value
2023-05-13T00:01:39.207Z,13.00
2023-05-13T00:04:07.215Z,13.00
2023-05-13T00:06:36.052Z,12.90
2023-05-13T00:09:04.108Z,13.00
2023-05-13T00:11:31.701Z,12.90
2023-05-13T00:13:59.167Z,12.90
2023-05-13T00:16:28.649Z,12.90
2023-05-13T00:18:56.527Z,12.80
2023-05-13T00:21:24.192Z,12.80
2023-05-13T00:23:51.741Z,12.80
2023-05-13T00:26:19.279Z,12.70
2023-05-13T00:28:49.426Z,12.70
2023-05-13T00:31:18.229Z,12.60
2023-05-13T00:33:45.975Z,12.50
2023-05-13T00:36:13.585Z,12.50
2023-05-13T00:38:41.294Z,12.40
2023-05-13T00:41:08.784Z,12.40
2023-05-13T00:43:36.359Z,12.40
2023-05-13T00:46:04.397Z,12.40
2023-05-13T00:48:33.430Z,12.40
2023-05-13T00:51:01.038Z,12.40
2023-05-13T00:53:28.797Z,12.30
2023-05-13T00:55:56.337Z,12.20
2023-05-13T00:58:23.951Z,12.10
2023-05-13T01:01:28.892Z,12.00
2023-05-13T01:04:42.596Z,12.00
2023-05-13T01:07:41.725Z,12.10
2023-05-13T01:10:56.920Z,12.20
2023-05-13T01:13:30.544Z,12.20
2023-05-13T01:16:09.938Z,12.20
2023-05-13T01:18:46.078Z,12.10
2023-05-13T01:21:13.847Z,12.10
2023-05-13T01:23:41.420Z,12.00
2023-05-13T01:26:10.169Z,12.00
2023-05-13T01:28:37.824Z,11.90
2023-05-13T01:31:06.425Z,11.80
2023-05-13T01:33:34.129Z,11.80
2023-05-13T01:36:02.569Z,11.80
2023-05-13T01:38:33.939Z,11.80
2023-05-13T01:41:01.988Z,11.90
2023-05-13T01:43:31.431Z,11.80
2023-05-13T01:46:00.463Z,11.80
2023-05-13T01:48:28.192Z,11.80
2023-05-13T01:50:56.281Z,11.70
2023-05-13T01:53:24.416Z,11.60
2023-05-13T01:55:53.938Z,11.60
2023-05-13T01:58:22.275Z,11.60
2023-05-13T02:00:49.997Z,11.60
2023-05-13T02:03:19.298Z,11.60
2023-05-13T02:05:48.552Z,11.50
2023-05-13T02:08:16.115Z,11.40
2023-05-13T02:10:43.681Z,11.30
2023-05-13T02:13:11.987Z,11.30
2023-05-13T02:15:41.058Z,11.20
2023-05-13T02:18:08.633Z,11.20
2023-05-13T02:20:36.192Z,11.20
2023-05-13T02:23:03.688Z,11.20
2023-05-13T02:25:31.217Z,11.10
2023-05-13T02:28:00.156Z,11.10
2023-05-13T02:30:27.821Z,11.00
2023-05-13T02:32:56.636Z,10.90
2023-05-13T02:35:25.957Z,11.00
2023-05-13T02:37:53.696Z,11.00
2023-05-13T02:40:22.252Z,11.00
2023-05-13T02:42:50.895Z,11.00
2023-05-13T02:45:24.108Z,10.90
2023-05-13T02:47:54.500Z,10.90
2023-05-13T02:50:22.536Z,10.90
2023-05-13T02:52:50.256Z,10.80
2023-05-13T02:55:18.453Z,10.80
2023-05-13T02:57:46.039Z,10.70
2023-05-13T03:00:14.629Z,10.70
2023-05-13T03:02:42.228Z,10.70
2023-05-13T03:05:09.930Z,10.70
2023-05-13T03:07:37.440Z,10.70
2023-05-13T03:10:06.606Z,10.70
2023-05-13T03:12:34.198Z,10.70
2023-05-13T03:15:01.714Z,10.70
2023-05-13T03:17:31.853Z,10.70
2023-05-13T03:19:59.416Z,10.70
2023-05-13T03:22:27.217Z,10.60
2023-05-13T03:24:55.004Z,10.60
2023-05-13T03:27:26.294Z,10.50
2023-05-13T03:29:53.848Z,10.40
2023-05-13T03:32:22.865Z,10.40
2023-05-13T03:34:51.623Z,10.50
2023-05-13T03:37:19.233Z,10.50
2023-05-13T03:39:46.789Z,10.50
2023-05-13T03:42:14.325Z,10.40
2023-05-13T03:44:42.030Z,10.30
2023-05-13T03:47:11.672Z,10.30
2023-05-13T03:49:39.455Z,10.40
2023-05-13T03:52:08.028Z,10.40
2023-05-13T03:54:35.776Z,10.40
2023-05-13T03:57:03.378Z,10.40
2023-05-13T03:59:30.943Z,10.40
2023-05-13T04:01:58.475Z,10.40
2023-05-13T04:04:26.184Z,10.40
2023-05-13T04:06:53.720Z,10.40
2023-05-13T04:09:21.211Z,10.40
2023-05-13T04:11:48.801Z,10.50
2023-05-13T04:14:18.180Z,10.50
2023-05-13T04:16:45.777Z,10.50
2023-05-13T04:19:13.367Z,10.60
2023-05-13T04:21:40.991Z,10.60
2023-05-13T04:24:08.549Z,10.70
2023-05-13T04:26:38.529Z,10.70
2023-05-13T04:29:06.196Z,10.80
2023-05-13T04:31:33.858Z,10.70
2023-05-13T04:34:01.676Z,10.70
2023-05-13T04:36:29.273Z,10.80
2023-05-13T04:38:57.575Z,10.90
2023-05-13T04:41:25.204Z,11.00
2023-05-13T04:43:52.727Z,11.00
2023-05-13T04:46:21.069Z,11.10
2023-05-13T04:48:50.138Z,11.10
2023-05-13T04:51:19.586Z,11.10
2023-05-13T04:53:47.869Z,11.20
2023-05-13T04:56:16.572Z,11.10
2023-05-13T04:58:44.298Z,11.20
2023-05-13T05:01:14.104Z,11.30
2023-05-13T05:03:41.883Z,11.30
2023-05-13T05:06:09.859Z,11.20
2023-05-13T05:08:37.540Z,11.30
2023-05-13T05:11:05.885Z,11.40
2023-05-13T05:13:35.753Z,11.40
2023-05-13T05:16:03.278Z,11.40
2023-05-13T05:18:31.878Z,11.40
2023-05-13T05:21:01.774Z,11.40
2023-05-13T05:23:30.055Z,11.40
2023-05-13T05:26:08.387Z,11.40
2023-05-13T05:28:40.109Z,11.30
2023-05-13T05:31:08.292Z,11.30
2023-05-13T05:33:36.809Z,11.30
2023-05-13T05:36:04.812Z,11.20
2023-05-13T05:38:32.344Z,11.20
2023-05-13T05:41:01.234Z,11.10
2023-05-13T05:43:29.599Z,11.20
2023-05-13T05:45:57.137Z,11.10
2023-05-13T05:48:26.205Z,11.00
2023-05-13T05:50:55.423Z,11.00
2023-05-13T05:53:29.668Z,10.90
2023-05-13T05:55:57.326Z,10.90
2023-05-13T05:58:26.960Z,11.00
2023-05-13T06:00:54.813Z,11.10
2023-05-13T06:03:22.522Z,11.20
2023-05-13T06:05:50.314Z,11.30
2023-05-13T06:08:19.498Z,11.40
2023-05-13T06:10:47.079Z,11.40
2023-05-13T06:13:15.339Z,11.50
2023-05-13T06:15:42.873Z,11.50
2023-05-13T06:18:12.407Z,11.40
2023-05-13T06:20:40.023Z,11.40
2023-05-13T06:23:09.646Z,11.50
2023-05-13T06:25:37.133Z,11.50
2023-05-13T06:28:08.242Z,11.60
2023-05-13T06:30:36.593Z,11.80
2023-05-13T06:33:04.578Z,11.90
2023-05-13T06:35:32.062Z,12.10
2023-05-13T06:38:01.803Z,12.20
2023-05-13T06:40:29.904Z,12.30
2023-05-13T06:42:57.889Z,12.30
2023-05-13T06:45:38.027Z,12.40
2023-05-13T06:48:06.157Z,12.50
2023-05-13T06:50:33.887Z,12.50
2023-05-13T06:53:01.504Z,12.50
2023-05-13T06:55:29.142Z,12.60
2023-05-13T06:57:56.609Z,12.50
2023-05-13T07:00:24.858Z,12.50
2023-05-13T07:02:52.436Z,12.60
2023-05-13T07:05:19.947Z,12.70
2023-05-13T07:07:47.614Z,12.80
2023-05-13T07:10:15.143Z,12.90
2023-05-13T07:12:42.633Z,12.90
2023-05-13T07:15:10.634Z,13.00
2023-05-13T07:17:38.255Z,13.20
2023-05-13T07:20:07.051Z,13.20
2023-05-13T07:22:35.490Z,13.20
2023-05-13T07:25:03.035Z,13.30
2023-05-13T07:27:30.676Z,13.20
2023-05-13T07:29:58.339Z,13.20
2023-05-13T07:32:25.853Z,13.20
2023-05-13T07:34:53.377Z,13.20
2023-05-13T07:37:20.869Z,13.30
2023-05-13T07:39:48.397Z,13.30
2023-05-13T07:42:16.750Z,13.30
2023-05-13T07:44:44.230Z,13.30
2023-05-13T07:47:13.592Z,13.30
2023-05-13T07:49:41.265Z,13.30
2023-05-13T07:52:09.006Z,13.30
2023-05-13T07:54:36.598Z,13.30
2023-05-13T07:57:04.110Z,13.30
2023-05-13T07:59:31.836Z,13.40
2023-05-13T08:01:59.379Z,13.40
2023-05-13T08:04:27.059Z,13.40
2023-05-13T08:06:54.677Z,13.40
2023-05-13T08:09:22.161Z,13.40
2023-05-13T08:11:50.077Z,13.30
2023-05-13T08:14:17.601Z,13.20
2023-05-13T08:16:45.272Z,13.20
2023-05-13T08:19:16.089Z,13.30
2023-05-13T08:21:44.392Z,13.30
2023-05-13T08:24:12.356Z,13.30
2023-05-13T08:26:39.895Z,13.30
2023-05-13T08:29:07.534Z,13.40
2023-05-13T08:31:35.030Z,13.50
2023-05-13T08:34:02.810Z,13.60
2023-05-13T08:36:30.324Z,13.60
2023-05-13T08:38:58.377Z,13.60
2023-05-13T08:41:26.974Z,13.60
2023-05-13T08:43:57.644Z,13.70
2023-05-13T08:46:28.228Z,13.70
2023-05-13T08:48:56.702Z,13.70
2023-05-13T08:51:24.644Z,13.70
2023-05-13T08:53:53.391Z,13.70
2023-05-13T08:56:22.418Z,13.80
2023-05-13T08:58:49.926Z,13.80
2023-05-13T09:01:17.521Z,13.80
2023-05-13T09:04:02.207Z,13.70
2023-05-13T09:06:29.777Z,13.70
2023-05-13T09:08:57.572Z,13.80
2023-05-13T09:11:26.227Z,13.80
2023-05-13T09:13:58.827Z,13.80
2023-05-13T09:16:29.485Z,13.90
2023-05-13T09:19:04.065Z,14.00
2023-05-13T09:21:35.420Z,14.00
2023-05-13T09:24:08.646Z,14.10
2023-05-13T09:26:37.992Z,14.00
2023-05-13T09:29:26.151Z,14.00
2023-05-13T09:32:01.599Z,14.10
2023-05-13T09:34:34.857Z,14.00
2023-05-13T09:37:08.046Z,14.00
2023-05-13T09:39:41.372Z,14.10
2023-05-13T09:42:17.088Z,14.10
2023-05-13T09:44:46.429Z,14.10
2023-05-13T09:47:15.449Z,14.20
2023-05-13T09:49:45.214Z,14.30
2023-05-13T09:52:16.971Z,14.40
2023-05-13T09:54:44.777Z,14.50
2023-05-13T09:57:13.625Z,14.50
2023-05-13T09:59:41.761Z,14.60
2023-05-13T10:02:10.088Z,14.70
2023-05-13T10:04:38.306Z,14.80
2023-05-13T10:07:06.369Z,14.80
2023-05-13T10:09:37.472Z,14.90
2023-05-13T10:12:08.682Z,14.90
2023-05-13T10:14:39.916Z,14.90
2023-05-13T10:17:09.157Z,15.00
2023-05-13T10:19:37.460Z,15.10
2023-05-13T10:22:05.662Z,15.20
2023-05-13T10:24:35.507Z,15.40
2023-05-13T10:27:06.875Z,15.40
2023-05-13T10:29:37.724Z,15.40
2023-05-13T10:32:07.334Z,15.50
2023-05-13T10:34:37.161Z,15.50
2023-05-13T10:37:50.179Z,15.50
2023-05-13T10:40:59.384Z,15.70
2023-05-13T10:43:32.631Z,15.80
2023-05-13T10:46:06.542Z,15.80
2023-05-13T10:48:43.215Z,15.90
2023-05-13T10:51:16.131Z,15.90
2023-05-13T10:53:52.792Z,16.00
2023-05-13T10:56:23.094Z,16.10
2023-05-13T10:59:04.830Z,16.20
2023-05-13T11:01:45.779Z,16.20
2023-05-13T11:04:17.597Z,16.30
2023-05-13T11:06:47.385Z,16.30
2023-05-13T11:09:30.664Z,16.30
2023-05-13T11:12:03.421Z,16.50
2023-05-13T11:14:31.544Z,16.50
2023-05-13T11:17:04.466Z,16.60
2023-05-13T11:19:34.888Z,16.80
2023-05-13T11:22:10.657Z,16.70
2023-05-13T11:24:38.868Z,16.60
2023-05-13T11:27:18.584Z,16.70
2023-05-13T11:29:55.449Z,16.90
2023-05-13T11:32:53.868Z,17.00
2023-05-13T11:35:29.398Z,16.90
2023-05-13T11:38:00.428Z,16.90
2023-05-13T11:40:34.534Z,16.90
2023-05-13T11:43:02.474Z,16.90
2023-05-13T11:45:30.840Z,16.90
2023-05-13T11:47:59.058Z,17.00
2023-05-13T11:50:30.838Z,16.90
2023-05-13T11:53:01.190Z,16.80
2023-05-13T11:55:31.501Z,16.70
2023-05-13T11:57:59.926Z,16.70
2023-05-13T12:00:30.913Z,16.80
2023-05-13T12:02:59.714Z,16.70
2023-05-13T12:05:27.702Z,16.70
2023-05-13T12:07:58.902Z,16.80
2023-05-13T12:10:27.115Z,16.90
2023-05-13T12:12:55.015Z,17.10
2023-05-13T12:15:23.073Z,17.20
2023-05-13T12:17:51.359Z,17.40
2023-05-13T12:20:21.770Z,17.50
2023-05-13T12:22:52.366Z,17.60
2023-05-13T12:25:35.714Z,17.80
2023-05-13T12:28:17.564Z,17.90
2023-05-13T12:30:57.747Z,17.90
2023-05-13T12:33:27.536Z,17.80
2023-05-13T12:36:17.449Z,17.70
2023-05-13T12:39:09.024Z,17.70
2023-05-13T12:41:42.235Z,17.70
2023-05-13T12:44:14.152Z,17.70
2023-05-13T12:46:57.793Z,17.80
2023-05-13T12:49:25.557Z,17.90
2023-05-13T12:51:53.079Z,18.00
2023-05-13T12:54:21.509Z,18.10
2023-05-13T12:56:49.054Z,18.20
2023-05-13T12:59:16.792Z,18.30
2023-05-13T13:01:44.299Z,18.50
2023-05-13T13:04:12.043Z,18.70
2023-05-13T13:06:40.234Z,18.80
2023-05-13T13:09:07.716Z,18.90
2023-05-13T13:11:35.225Z,18.90
2023-05-13T13:14:02.741Z,18.90
2023-05-13T13:16:30.624Z,18.90
2023-05-13T13:19:01.496Z,18.70
2023-05-13T13:21:29.633Z,18.60
2023-05-13T13:23:57.147Z,18.50
2023-05-13T13:26:24.677Z,18.30
2023-05-13T13:28:52.152Z,18.30
2023-05-13T13:31:19.823Z,18.30
2023-05-13T13:33:47.345Z,18.30
2023-05-13T13:36:14.847Z,18.30
2023-05-13T13:38:42.362Z,18.30
2023-05-13T13:41:09.884Z,18.30
2023-05-13T13:43:37.751Z,18.30
2023-05-13T13:46:05.305Z,18.30
2023-05-13T13:48:32.855Z,18.40
2023-05-13T13:51:00.501Z,18.60
2023-05-13T13:53:27.981Z,19.00
2023-05-13T13:55:55.535Z,19.50
2023-05-13T13:58:23.641Z,20.20
2023-05-13T14:00:52.144Z,20.50
2023-05-13T14:03:19.805Z,20.60
2023-05-13T14:05:48.197Z,20.40
2023-05-13T14:08:15.864Z,20.20
2023-05-13T14:10:43.615Z,20.20
2023-05-13T14:13:11.121Z,20.20
2023-05-13T14:15:39.102Z,20.20
2023-05-13T14:18:08.347Z,20.10
2023-05-13T14:20:36.423Z,20.00
2023-05-13T14:23:05.364Z,19.90
2023-05-13T14:25:33.177Z,19.80
2023-05-13T14:28:00.723Z,19.70
2023-05-13T14:30:28.237Z,19.50
2023-05-13T14:32:55.895Z,19.50
2023-05-13T14:35:23.433Z,19.40
2023-05-13T14:37:50.942Z,19.50
2023-05-13T14:40:18.547Z,19.50
2023-05-13T14:42:46.127Z,19.50
2023-05-13T14:45:16.764Z,19.60
2023-05-13T14:47:45.309Z,19.70
2023-05-13T14:50:12.967Z,19.80
2023-05-13T14:52:40.482Z,19.70
2023-05-13T14:55:08.443Z,19.70
2023-05-13T14:57:36.079Z,20.10
2023-05-13T15:00:04.088Z,20.30
2023-05-13T15:02:31.774Z,20.40
2023-05-13T15:04:59.543Z,20.40
2023-05-13T15:07:27.168Z,20.50
2023-05-13T15:09:55.603Z,20.90
2023-05-13T15:12:23.091Z,21.00
2023-05-13T15:14:54.806Z,21.10
2023-05-13T15:17:22.406Z,20.90
2023-05-13T15:19:50.046Z,20.50
2023-05-13T15:22:18.549Z,20.20
2023-05-13T15:24:46.120Z,19.90
2023-05-13T15:27:14.159Z,19.70
2023-05-13T15:29:41.624Z,19.60
2023-05-13T15:32:09.105Z,19.60
2023-05-13T15:34:36.575Z,19.60
2023-05-13T15:37:04.170Z,19.60
2023-05-13T15:39:31.732Z,19.30
2023-05-13T15:41:59.445Z,19.20
2023-05-13T15:44:27.096Z,19.20
2023-05-13T15:46:54.879Z,19.10
2023-05-13T15:49:23.152Z,18.90
2023-05-13T15:51:51.415Z,18.80
2023-05-13T15:54:18.888Z,18.70
2023-05-13T15:56:46.404Z,18.70
2023-05-13T15:59:13.957Z,18.60
2023-05-13T16:01:41.725Z,18.50
2023-05-13T16:04:09.815Z,18.40
2023-05-13T16:06:37.332Z,18.30
2023-05-13T16:09:05.074Z,18.20
2023-05-13T16:11:32.601Z,18.00
2023-05-13T16:14:00.539Z,18.00
2023-05-13T16:16:28.161Z,17.90
2023-05-13T16:18:55.698Z,17.80
2023-05-13T16:21:23.219Z,17.70
2023-05-13T16:23:51.018Z,17.60
2023-05-13T16:26:18.571Z,17.50
2023-05-13T16:28:46.109Z,17.50
2023-05-13T16:31:13.617Z,17.40
2023-05-13T16:33:41.217Z,17.40
2023-05-13T16:36:11.736Z,17.40
2023-05-13T16:38:41.437Z,17.40
2023-05-13T16:41:09.077Z,17.30
2023-05-13T16:43:36.560Z,17.30
2023-05-13T16:46:04.103Z,17.30
2023-05-13T16:48:31.630Z,17.30
2023-05-13T16:50:59.144Z,17.20
2023-05-13T16:53:26.680Z,17.20
2023-05-13T16:55:54.201Z,17.10
2023-05-13T16:58:21.696Z,17.00
2023-05-13T17:00:49.296Z,17.00
2023-05-13T17:03:16.882Z,17.00
2023-05-13T17:05:45.226Z,17.00
2023-05-13T17:08:12.706Z,17.00
2023-05-13T17:10:40.347Z,17.00
2023-05-13T17:13:07.812Z,17.00
2023-05-13T17:15:35.326Z,17.00
2023-05-13T17:18:03.045Z,17.00
2023-05-13T17:20:30.592Z,16.90
2023-05-13T17:22:58.274Z,16.80
2023-05-13T17:25:25.840Z,16.80
2023-05-13T17:27:53.355Z,16.70
2023-05-13T17:30:21.267Z,16.70
2023-05-13T17:32:48.991Z,16.60
2023-05-13T17:35:16.568Z,16.70
2023-05-13T17:37:44.056Z,16.70
2023-05-13T17:40:12.182Z,16.60
2023-05-13T17:42:39.709Z,16.60
2023-05-13T17:45:08.283Z,16.70
2023-05-13T17:47:35.913Z,16.60
2023-05-13T17:50:04.188Z,16.50
2023-05-13T17:52:31.706Z,16.50
2023-05-13T17:55:00.126Z,16.50
2023-05-13T17:57:27.891Z,16.40
2023-05-13T17:59:55.380Z,16.40
2023-05-13T18:02:24.027Z,16.40
2023-05-13T18:04:52.470Z,16.40
2023-05-13T18:07:19.972Z,16.30
2023-05-13T18:09:49.911Z,16.30
2023-05-13T18:12:18.068Z,16.30
2023-05-13T18:14:45.551Z,16.30
2023-05-13T18:17:13.041Z,16.30
2023-05-13T18:19:40.570Z,16.30
2023-05-13T18:22:10.940Z,16.30
2023-05-13T18:24:39.054Z,16.30
2023-05-13T18:27:10.091Z,16.20
2023-05-13T18:29:37.646Z,16.20
2023-05-13T18:32:05.588Z,16.30
2023-05-13T18:34:33.726Z,16.20
2023-05-13T18:37:01.520Z,16.20
2023-05-13T18:39:28.999Z,16.10
2023-05-13T18:41:56.496Z,16.10
2023-05-13T18:44:23.969Z,16.10
2023-05-13T18:46:52.970Z,16.00
2023-05-13T18:49:20.546Z,15.90
2023-05-13T18:51:48.125Z,15.90
2023-05-13T18:54:16.075Z,15.90
2023-05-13T18:56:44.332Z,15.90
2023-05-13T18:59:12.838Z,15.90
2023-05-13T19:01:42.060Z,15.90
2023-05-13T19:04:09.678Z,15.90
2023-05-13T19:06:37.952Z,15.80
2023-05-13T19:09:05.517Z,15.80
2023-05-13T19:11:33.342Z,15.80
2023-05-13T19:14:00.831Z,15.70
2023-05-13T19:16:28.398Z,15.60
2023-05-13T19:18:56.082Z,15.50
2023-05-13T19:21:23.688Z,15.50
2023-05-13T19:23:51.208Z,15.50
2023-05-13T19:26:18.836Z,15.40
2023-05-13T19:28:46.801Z,15.40
2023-05-13T19:31:14.361Z,15.40
2023-05-13T19:33:43.463Z,15.40
2023-05-13T19:36:12.156Z,15.40
2023-05-13T19:38:39.694Z,15.40
2023-05-13T19:41:07.187Z,15.30
2023-05-13T19:43:34.707Z,15.20
2023-05-13T19:46:02.301Z,15.20
2023-05-13T19:48:30.561Z,15.30
2023-05-13T19:50:58.359Z,15.20
2023-05-13T19:53:26.141Z,15.20
2023-05-13T19:55:54.282Z,15.10
2023-05-13T19:58:21.947Z,15.10
2023-05-13T20:00:49.450Z,15.00
2023-05-13T20:03:17.051Z,15.00
2023-05-13T20:05:44.641Z,14.90
2023-05-13T20:08:12.433Z,14.90
2023-05-13T20:10:40.433Z,14.80
2023-05-13T20:13:07.928Z,14.80
2023-05-13T20:15:35.443Z,14.70
2023-05-13T20:18:02.938Z,14.70
2023-05-13T20:20:30.605Z,14.70
2023-05-13T20:22:58.063Z,14.70
2023-05-13T20:25:25.613Z,14.60
2023-05-13T20:27:53.089Z,14.60
2023-05-13T20:30:21.803Z,14.50
2023-05-13T20:32:49.531Z,14.40
2023-05-13T20:35:17.098Z,14.30
2023-05-13T20:37:44.585Z,14.30
2023-05-13T20:40:12.499Z,14.30
2023-05-13T20:42:40.005Z,14.20
2023-05-13T20:45:08.563Z,14.20
2023-05-13T20:47:36.384Z,14.10
2023-05-13T20:50:04.286Z,14.00
2023-05-13T20:52:31.827Z,13.90
2023-05-13T20:54:59.449Z,13.90
2023-05-13T20:57:27.427Z,13.80
2023-05-13T20:59:55.401Z,13.80
2023-05-13T21:02:23.051Z,13.90
2023-05-13T21:04:50.623Z,13.80
2023-05-13T21:07:18.133Z,13.80
2023-05-13T21:09:45.609Z,13.80
2023-05-13T21:12:13.221Z,13.80
2023-05-13T21:14:41.284Z,13.80
2023-05-13T21:17:09.159Z,13.90
2023-05-13T21:19:36.645Z,13.80
2023-05-13T21:22:05.816Z,13.80
2023-05-13T21:24:33.331Z,13.80
2023-05-13T21:27:00.818Z,13.80
2023-05-13T21:29:30.057Z,13.70
2023-05-13T21:31:57.585Z,13.70
2023-05-13T21:34:25.200Z,13.70
2023-05-13T21:36:53.392Z,13.60
2023-05-13T21:39:21.467Z,13.60
2023-05-13T21:41:49.105Z,13.60
2023-05-13T21:44:16.606Z,13.60
2023-05-13T21:46:44.131Z,13.60
2023-05-13T21:49:11.848Z,13.60
2023-05-13T21:51:40.176Z,13.60
2023-05-13T21:54:07.666Z,13.70
2023-05-13T21:56:35.252Z,13.60
2023-05-13T21:59:02.740Z,13.60
2023-05-13T22:01:30.353Z,13.60
2023-05-13T22:03:57.832Z,13.70
2023-05-13T22:06:25.468Z,13.60
2023-05-13T22:08:52.985Z,13.60
2023-05-13T22:11:20.980Z,13.60
2023-05-13T22:13:48.460Z,13.70
2023-05-13T22:16:16.052Z,13.70
2023-05-13T22:18:43.799Z,13.70
2023-05-13T22:21:11.449Z,13.70
2023-05-13T22:23:38.958Z,13.70
2023-05-13T22:26:06.487Z,13.60
2023-05-13T22:28:34.022Z,13.60
2023-05-13T22:31:01.555Z,13.60
2023-05-13T22:33:29.095Z,13.60
2023-05-13T22:35:56.584Z,13.60
2023-05-13T22:38:24.053Z,13.60
2023-05-13T22:40:51.567Z,13.50
2023-05-13T22:43:19.063Z,13.50
2023-05-13T22:45:46.615Z,13.40
2023-05-13T22:48:14.971Z,13.40
2023-05-13T22:50:42.464Z,13.40
2023-05-13T22:53:10.298Z,13.40
2023-05-13T22:55:37.852Z,13.50
2023-05-13T22:58:05.582Z,13.40
2023-05-13T23:00:33.096Z,13.50
2023-05-13T23:03:00.699Z,13.50
2023-05-13T23:05:28.223Z,13.50
2023-05-13T23:07:55.846Z,13.40
2023-05-13T23:10:23.768Z,13.40
2023-05-13T23:12:51.710Z,13.40
2023-05-13T23:15:19.277Z,13.40
2023-05-13T23:17:47.099Z,13.40
2023-05-13T23:20:14.653Z,13.40
2023-05-13T23:22:42.241Z,13.40
2023-05-13T23:25:10.098Z,13.40
2023-05-13T23:27:37.618Z,13.40
2023-05-13T23:30:06.019Z,13.40
2023-05-13T23:32:33.583Z,13.40
2023-05-13T23:35:01.174Z,13.40
2023-05-13T23:37:28.671Z,13.30
2023-05-13T23:39:56.260Z,13.30
2023-05-13T23:42:23.742Z,13.30
2023-05-13T23:44:51.383Z,13.30
2023-05-13T23:47:18.905Z,13.20
2023-05-13T23:49:46.461Z,13.20
2023-05-13T23:52:14.070Z,13.20
2023-05-13T23:54:41.842Z,13.20
2023-05-13T23:57:09.317Z,13.10
2023-05-13T23:59:36.860Z,13.10
